createdAt,value
2022-09-10T00:02:36.297Z,15.73
2022-09-10T00:05:42.004Z,15.64
2022-09-10T00:08:44.628Z,15.71
2022-09-10T00:11:47.369Z,15.68
2022-09-10T00:14:51.282Z,15.60
2022-09-10T00:17:55.259Z,15.34
2022-09-10T00:20:58.374Z,15.52
2022-09-10T00:24:01.786Z,15.43
2022-09-10T00:27:04.516Z,15.70
2022-09-10T00:30:08.429Z,15.68
2022-09-10T00:33:12.485Z,15.67
2022-09-10T00:36:16.054Z,15.39
2022-09-10T00:39:18.995Z,15.45
2022-09-10T00:42:21.606Z,15.52
2022-09-10T00:45:24.822Z,15.55
2022-09-10T00:48:30.065Z,15.48
2022-09-10T00:51:34.171Z,15.15
2022-09-10T00:54:37.133Z,15.61
2022-09-10T00:57:39.748Z,15.60
2022-09-10T01:00:42.456Z,15.75
2022-09-10T01:03:46.549Z,15.75
2022-09-10T01:06:51.236Z,15.69
2022-09-10T01:09:53.871Z,15.74
2022-09-10T01:13:07.031Z,15.76
2022-09-10T01:16:14.621Z,15.37
2022-09-10T01:19:28.304Z,15.24
2022-09-10T01:22:34.304Z,15.71
2022-09-10T01:25:41.864Z,15.15
2022-09-10T01:28:48.799Z,15.65
2022-09-10T01:31:53.172Z,15.25
2022-09-10T01:34:57.328Z,15.60
2022-09-10T01:38:01.255Z,15.70
2022-09-10T01:41:04.295Z,15.68
2022-09-10T01:44:13.227Z,15.51
2022-09-10T01:47:20.066Z,15.73
2022-09-10T01:50:24.127Z,15.76
2022-09-10T01:53:36.603Z,15.62
2022-09-10T01:56:41.987Z,15.82
2022-09-10T01:59:47.975Z,15.86
2022-09-10T02:02:52.217Z,15.88
2022-09-10T02:05:55.499Z,15.62
2022-09-10T02:08:59.003Z,15.83
2022-09-10T02:12:01.882Z,15.96
2022-09-10T02:15:07.919Z,16.02
2022-09-10T02:18:10.549Z,15.55
2022-09-10T02:21:13.246Z,15.94
2022-09-10T02:24:15.919Z,16.00
2022-09-10T02:27:18.577Z,15.56
2022-09-10T02:30:24.749Z,15.69
2022-09-10T02:33:27.506Z,16.03
2022-09-10T02:36:34.015Z,15.95
2022-09-10T02:39:36.637Z,16.04
2022-09-10T02:42:39.299Z,15.95
2022-09-10T02:45:45.611Z,15.80
2022-09-10T02:48:48.549Z,15.65
2022-09-10T02:51:51.698Z,16.09
2022-09-10T02:54:54.312Z,16.12
2022-09-10T02:57:58.140Z,16.13
2022-09-10T03:01:08.643Z,15.66
2022-09-10T03:04:11.358Z,15.94
2022-09-10T03:07:17.074Z,15.93
2022-09-10T03:10:19.707Z,16.13
2022-09-10T03:13:22.328Z,16.06
2022-09-10T03:16:26.445Z,15.61
2022-09-10T03:19:29.130Z,16.03
2022-09-10T03:22:32.083Z,16.11
2022-09-10T03:25:35.303Z,16.16
2022-09-10T03:28:38.618Z,15.94
2022-09-10T03:31:45.096Z,16.21
2022-09-10T03:34:49.091Z,16.12
2022-09-10T03:37:51.694Z,16.21
2022-09-10T03:40:54.555Z,16.11
2022-09-10T03:43:57.438Z,15.77
2022-09-10T03:47:01.519Z,16.05
2022-09-10T03:50:04.537Z,15.75
2022-09-10T03:53:07.137Z,15.97
2022-09-10T03:56:09.828Z,15.84
2022-09-10T03:59:13.350Z,16.09
2022-09-10T04:02:17.732Z,15.97
2022-09-10T04:05:20.413Z,16.06
2022-09-10T04:08:23.179Z,15.52
2022-09-10T04:11:27.544Z,15.57
2022-09-10T04:14:30.340Z,15.67
2022-09-10T04:17:34.762Z,15.88
2022-09-10T04:20:38.032Z,15.60
2022-09-10T04:23:41.213Z,15.49
2022-09-10T04:26:43.865Z,15.90
2022-09-10T04:29:46.589Z,15.85
2022-09-10T04:32:50.683Z,15.77
2022-09-10T04:35:53.294Z,16.05
2022-09-10T04:38:56.001Z,15.60
2022-09-10T04:41:58.694Z,16.13
2022-09-10T04:45:01.371Z,16.02
2022-09-10T04:48:07.163Z,15.97
2022-09-10T04:51:17.527Z,16.19
2022-09-10T04:54:20.596Z,16.17
2022-09-10T04:57:24.253Z,16.03
2022-09-10T05:00:27.090Z,16.01
2022-09-10T05:03:31.236Z,16.04
2022-09-10T05:06:34.144Z,15.90
2022-09-10T05:09:36.783Z,16.06
2022-09-10T05:12:39.599Z,15.94
2022-09-10T05:15:42.299Z,16.08
2022-09-10T05:18:46.356Z,16.09
2022-09-10T05:21:49.453Z,16.08
2022-09-10T05:24:52.092Z,15.89
2022-09-10T05:27:55.230Z,15.97
2022-09-10T05:30:58.096Z,16.14
2022-09-10T05:34:02.268Z,16.06
2022-09-10T05:37:05.826Z,16.12
2022-09-10T05:40:12.153Z,15.97
2022-09-10T05:43:14.845Z,16.09
2022-09-10T05:46:17.544Z,15.93
2022-09-10T05:49:21.596Z,16.39
2022-09-10T05:52:24.479Z,16.57
2022-09-10T05:55:27.132Z,16.81
2022-09-10T05:58:30.024Z,17.76
2022-09-10T06:01:33.151Z,18.47
2022-09-10T06:04:37.231Z,18.33
2022-09-10T06:07:39.905Z,17.70
2022-09-10T06:10:43.105Z,17.42
2022-09-10T06:13:45.739Z,17.68
2022-09-10T06:16:49.376Z,17.08
2022-09-10T06:19:53.762Z,17.45
2022-09-10T06:22:56.454Z,17.18
2022-09-10T06:26:04.254Z,17.64
2022-09-10T06:29:07.006Z,17.62
2022-09-10T06:32:09.648Z,17.66
2022-09-10T06:35:14.048Z,17.84
2022-09-10T06:38:16.797Z,18.21
2022-09-10T06:41:19.406Z,18.43
2022-09-10T06:44:22.464Z,18.73
2022-09-10T06:50:53.328Z,18.84
2022-09-10T06:53:56.392Z,19.04
2022-09-10T06:56:59.037Z,19.07
2022-09-10T07:00:01.836Z,18.54
2022-09-10T07:03:04.523Z,18.83
2022-09-10T07:06:09.699Z,18.74
2022-09-10T07:09:12.380Z,18.77
2022-09-10T07:12:15.245Z,18.93
2022-09-10T07:15:17.996Z,18.97
2022-09-10T07:18:20.721Z,18.78
2022-09-10T07:21:25.387Z,19.23
2022-09-10T07:24:28.599Z,19.45
2022-09-10T07:27:31.264Z,19.62
2022-09-10T07:30:35.900Z,19.86
2022-09-10T07:33:39.120Z,20.03
2022-09-10T07:36:43.240Z,20.38
2022-09-10T07:39:46.029Z,20.55
2022-09-10T07:42:48.837Z,20.50
2022-09-10T07:45:51.847Z,20.39
2022-09-10T07:48:55.706Z,20.13
2022-09-10T07:52:00.229Z,19.94
2022-09-10T07:55:03.058Z,19.76
2022-09-10T07:58:06.123Z,19.61
2022-09-10T08:01:13.001Z,19.78
2022-09-10T08:04:16.167Z,20.20
2022-09-10T08:07:20.722Z,20.44
2022-09-10T08:10:23.995Z,20.66
2022-09-10T08:13:29.972Z,20.34
2022-09-10T08:16:33.224Z,20.06
2022-09-10T08:19:36.980Z,20.40
2022-09-10T08:22:41.496Z,20.51
2022-09-10T08:25:51.540Z,20.82
2022-09-10T08:28:55.805Z,20.65
2022-09-10T08:31:58.961Z,20.90
2022-09-10T08:35:04.079Z,20.62
2022-09-10T08:38:08.958Z,20.65
2022-09-10T08:41:13.861Z,20.23
2022-09-10T08:44:20.478Z,20.66
2022-09-10T08:47:28.369Z,20.34
2022-09-10T08:50:36.827Z,20.06
2022-09-10T08:53:45.289Z,20.10
2022-09-10T08:56:48.338Z,20.18
2022-09-10T08:59:52.377Z,19.94
2022-09-10T09:02:56.584Z,20.17
2022-09-10T09:06:00.277Z,20.13
2022-09-10T09:09:04.759Z,19.95
2022-09-10T09:12:14.839Z,20.10
2022-09-10T09:15:18.284Z,19.66
2022-09-10T09:18:23.862Z,20.11
2022-09-10T09:21:31.165Z,20.31
2022-09-10T09:24:40.745Z,20.59
2022-09-10T09:27:43.622Z,20.23
2022-09-10T09:30:49.463Z,20.72
2022-09-10T09:33:52.961Z,20.54
2022-09-10T09:36:56.527Z,20.84
2022-09-10T09:40:07.278Z,20.99
2022-09-10T09:43:12.328Z,21.15
2022-09-10T09:46:16.551Z,21.52
2022-09-10T09:49:19.330Z,21.41
2022-09-10T09:52:23.341Z,21.67
2022-09-10T09:55:30.917Z,22.07
2022-09-10T09:58:35.669Z,22.31
2022-09-10T10:01:39.468Z,22.21
2022-09-10T10:04:43.035Z,22.51
2022-09-10T10:07:45.827Z,22.16
2022-09-10T10:10:53.936Z,21.94
2022-09-10T10:13:56.685Z,22.37
2022-09-10T10:17:01.093Z,22.75
2022-09-10T10:20:14.152Z,22.67
2022-09-10T10:23:31.187Z,22.63
2022-09-10T10:26:35.494Z,22.75
2022-09-10T10:29:38.621Z,22.73
2022-09-10T10:32:44.618Z,23.30
2022-09-10T10:35:47.958Z,23.23
2022-09-10T10:38:55.485Z,23.26
2022-09-10T10:42:04.405Z,23.42
2022-09-10T10:45:19.092Z,23.64
2022-09-10T10:48:25.813Z,23.37
2022-09-10T10:51:33.397Z,23.63
2022-09-10T10:54:43.430Z,23.80
2022-09-10T10:58:01.695Z,23.94
2022-09-10T11:01:07.573Z,23.94
2022-09-10T11:04:22.815Z,23.57
2022-09-10T11:07:28.745Z,23.66
2022-09-10T11:10:34.040Z,23.75
2022-09-10T11:13:40.133Z,24.15
2022-09-10T11:16:44.591Z,24.13
2022-09-10T11:20:00.539Z,23.84
2022-09-10T11:23:18.563Z,23.86
2022-09-10T11:26:23.116Z,24.29
2022-09-10T11:29:33.032Z,24.10
2022-09-10T11:32:38.297Z,24.09
2022-09-10T11:35:42.315Z,24.19
2022-09-10T11:38:53.076Z,23.76
2022-09-10T11:41:55.753Z,23.94
2022-09-10T11:45:02.243Z,24.41
2022-09-10T11:48:10.337Z,24.47
2022-09-10T11:51:14.509Z,24.50
2022-09-10T11:54:18.376Z,24.79
2022-09-10T11:57:27.239Z,24.80
2022-09-10T12:00:31.336Z,25.12
2022-09-10T12:03:53.102Z,24.94
2022-09-10T12:07:01.780Z,25.30
2022-09-10T12:10:14.224Z,25.32
2022-09-10T12:13:17.428Z,25.40
2022-09-10T12:16:34.633Z,25.51
2022-09-10T12:19:38.331Z,25.82
2022-09-10T12:22:41.801Z,25.88
2022-09-10T12:25:44.411Z,25.96
2022-09-10T12:29:01.447Z,25.98
2022-09-10T12:32:38.734Z,25.88
2022-09-10T12:35:44.885Z,25.47
2022-09-10T12:38:49.129Z,25.31
2022-09-10T12:41:57.927Z,25.18
2022-09-10T12:45:00.704Z,25.58
2022-09-10T12:48:12.147Z,25.38
2022-09-10T12:51:24.679Z,25.31
2022-09-10T12:54:42.699Z,24.92
2022-09-10T12:57:47.205Z,24.46
2022-09-10T13:00:59.148Z,24.27
2022-09-10T13:04:03.115Z,24.54
2022-09-10T13:07:06.754Z,24.47
2022-09-10T13:10:21.719Z,24.69
2022-09-10T13:13:33.656Z,24.70
2022-09-10T13:16:40.460Z,24.61
2022-09-10T13:19:50.958Z,24.81
2022-09-10T13:22:55.860Z,24.64
2022-09-10T13:26:26.042Z,24.73
2022-09-10T13:29:32.434Z,24.67
2022-09-10T13:32:38.604Z,24.45
2022-09-10T13:36:05.458Z,24.90
2022-09-10T13:39:16.051Z,24.98
2022-09-10T13:42:42.278Z,25.11
2022-09-10T13:45:50.314Z,25.29
2022-09-10T13:48:55.857Z,25.27
2022-09-10T13:51:59.631Z,25.38
2022-09-10T13:55:03.396Z,25.36
2022-09-10T13:58:08.632Z,25.29
2022-09-10T14:01:12.655Z,25.06
2022-09-10T14:04:22.905Z,24.72
2022-09-10T14:07:28.182Z,24.72
2022-09-10T14:10:30.857Z,24.62
2022-09-10T14:13:36.836Z,24.65
2022-09-10T14:16:41.861Z,24.35
2022-09-10T14:19:49.284Z,24.67
2022-09-10T14:22:53.017Z,24.55
2022-09-10T14:26:12.717Z,24.65
2022-09-10T14:29:24.492Z,24.18
2022-09-10T14:32:32.670Z,24.19
2022-09-10T14:35:39.336Z,24.31
2022-09-10T14:38:42.434Z,24.24
2022-09-10T14:41:45.071Z,24.51
2022-09-10T14:44:47.665Z,24.55
2022-09-10T14:47:54.208Z,24.58
2022-09-10T14:51:11.060Z,24.52
2022-09-10T14:54:14.838Z,24.02
2022-09-10T14:57:17.729Z,24.46
2022-09-10T15:00:20.475Z,24.40
2022-09-10T15:03:25.062Z,23.95
2022-09-10T15:06:27.677Z,24.07
2022-09-10T15:09:31.196Z,23.86
2022-09-10T15:12:33.792Z,23.98
2022-09-10T15:15:37.072Z,23.84
2022-09-10T15:18:41.059Z,23.65
2022-09-10T15:21:43.921Z,23.57
2022-09-10T15:25:08.198Z,23.48
2022-09-10T15:28:09.712Z,22.95
2022-09-10T15:31:12.521Z,23.21
2022-09-10T15:34:16.583Z,23.03
2022-09-10T15:37:19.236Z,23.06
2022-09-10T15:40:21.979Z,23.10
2022-09-10T15:43:26.647Z,23.00
2022-09-10T15:46:29.491Z,23.19
2022-09-10T15:49:33.545Z,23.08
2022-09-10T15:52:36.171Z,22.67
2022-09-10T15:55:39.414Z,22.83
2022-09-10T15:58:43.294Z,22.87
2022-09-10T16:01:45.986Z,22.44
2022-09-10T16:04:50.064Z,22.77
2022-09-10T16:07:52.787Z,22.43
2022-09-10T16:10:55.669Z,22.43
2022-09-10T16:14:03.538Z,22.53
2022-09-10T16:17:10.505Z,22.56
2022-09-10T16:20:14.658Z,22.46
2022-09-10T16:23:17.649Z,22.42
2022-09-10T16:26:21.365Z,22.35
2022-09-10T16:29:24.354Z,22.08
2022-09-10T16:32:27.031Z,22.15
2022-09-10T16:35:31.096Z,22.16
2022-09-10T16:38:34.633Z,21.96
2022-09-10T16:41:39.685Z,21.65
2022-09-10T16:44:42.332Z,22.06
2022-09-10T16:47:45.120Z,21.84
2022-09-10T16:50:49.163Z,21.72
2022-09-10T16:53:55.727Z,21.88
2022-09-10T16:56:58.353Z,21.86
2022-09-10T17:00:00.963Z,21.58
2022-09-10T17:03:04.039Z,21.77
2022-09-10T17:06:09.896Z,21.63
2022-09-10T17:09:15.097Z,21.67
2022-09-10T17:12:17.795Z,21.65
2022-09-10T17:15:20.449Z,21.52
2022-09-10T17:18:23.155Z,21.51
2022-09-10T17:21:27.474Z,21.44
2022-09-10T17:24:30.163Z,21.45
2022-09-10T17:27:33.192Z,21.28
2022-09-10T17:30:35.876Z,21.19
2022-09-10T17:33:39.014Z,21.12
2022-09-10T17:36:43.398Z,20.93
2022-09-10T17:39:47.611Z,21.05
2022-09-10T17:42:50.307Z,21.11
2022-09-10T17:45:52.991Z,20.85
2022-09-10T17:48:55.724Z,21.00
2022-09-10T17:52:00.342Z,20.71
2022-09-10T17:55:02.984Z,20.85
2022-09-10T17:58:05.669Z,20.85
2022-09-10T18:01:09.899Z,20.71
2022-09-10T18:04:14.452Z,20.57
2022-09-10T18:07:18.532Z,20.75
2022-09-10T18:10:22.989Z,20.71
2022-09-10T18:13:26.090Z,20.38
2022-09-10T18:16:29.747Z,20.31
2022-09-10T18:19:33.106Z,20.57
2022-09-10T18:22:38.135Z,20.53
2022-09-10T18:25:41.215Z,20.47
2022-09-10T18:28:44.079Z,20.30
2022-09-10T18:31:47.457Z,20.21
2022-09-10T18:34:50.128Z,20.20
2022-09-10T18:37:54.152Z,20.24
2022-09-10T18:40:57.335Z,19.83
2022-09-10T18:44:01.193Z,19.97
2022-09-10T18:47:05.572Z,20.04
2022-09-10T18:50:09.411Z,20.08
2022-09-10T18:53:13.844Z,19.76
2022-09-10T18:56:18.019Z,20.11
2022-09-10T18:59:21.395Z,19.89
2022-09-10T19:02:24.138Z,19.90
2022-09-10T19:05:27.010Z,19.65
2022-09-10T19:08:31.046Z,19.58
2022-09-10T19:11:36.124Z,19.46
2022-09-10T19:14:38.754Z,19.91
2022-09-10T19:17:41.321Z,19.89
2022-09-10T19:20:44.007Z,19.75
2022-09-10T19:23:48.316Z,19.58
2022-09-10T19:26:51.108Z,19.71
2022-09-10T19:29:54.129Z,19.66
2022-09-10T19:32:57.168Z,19.62
2022-09-10T19:36:01.795Z,19.68
2022-09-10T19:39:07.500Z,19.71
2022-09-10T19:42:10.139Z,19.32
2022-09-10T19:45:12.734Z,19.72
2022-09-10T19:48:15.320Z,19.27
2022-09-10T19:51:19.967Z,19.30
2022-09-10T19:54:25.639Z,19.55
2022-09-10T19:57:29.112Z,19.40
2022-09-10T20:00:46.452Z,19.55
2022-09-10T20:03:50.644Z,19.44
2022-09-10T20:06:53.324Z,19.36
2022-09-10T20:09:57.358Z,19.45
2022-09-10T20:12:59.972Z,19.42
2022-09-10T20:16:03.354Z,19.38
2022-09-10T20:19:06.076Z,19.11
2022-09-10T20:22:08.706Z,19.23
2022-09-10T20:25:12.801Z,19.29
2022-09-10T20:28:15.636Z,19.26
2022-09-10T20:31:18.278Z,19.04
2022-09-10T20:34:21.831Z,18.64
2022-09-10T20:37:25.313Z,18.83
2022-09-10T20:40:29.319Z,19.02
2022-09-10T20:43:31.924Z,19.01
2022-09-10T20:46:34.613Z,18.92
2022-09-10T20:49:37.299Z,18.87
2022-09-10T20:52:40.024Z,18.81
2022-09-10T20:55:44.060Z,18.76
2022-09-10T20:58:47.304Z,18.75
2022-09-10T21:01:50.851Z,18.63
2022-09-10T21:04:53.532Z,18.78
2022-09-10T21:07:57.780Z,18.77
2022-09-10T21:11:05.610Z,18.71
2022-09-10T21:14:08.460Z,18.57
2022-09-10T21:17:11.061Z,18.71
2022-09-10T21:20:14.494Z,18.53
2022-09-10T21:23:17.801Z,18.46
2022-09-10T21:26:23.251Z,18.49
2022-09-10T21:29:25.845Z,18.55
2022-09-10T21:32:28.652Z,18.52
2022-09-10T21:35:31.767Z,18.46
2022-09-10T21:38:35.133Z,18.42
2022-09-10T21:41:40.157Z,18.24
2022-09-10T21:44:42.822Z,18.16
2022-09-10T21:47:45.447Z,18.09
2022-09-10T21:50:48.191Z,18.18
2022-09-10T21:53:53.113Z,18.22
2022-09-10T21:56:57.046Z,18.22
2022-09-10T22:00:00.183Z,18.19
2022-09-10T22:03:04.184Z,17.76
2022-09-10T22:06:07.881Z,18.03
2022-09-10T22:09:11.703Z,18.00
2022-09-10T22:12:15.729Z,17.84
2022-09-10T22:15:18.394Z,17.91
2022-09-10T22:18:21.114Z,17.73
2022-09-10T22:21:24.584Z,17.99
2022-09-10T22:24:27.184Z,17.98
2022-09-10T22:27:31.178Z,17.81
2022-09-10T22:30:33.780Z,17.84
2022-09-10T22:33:38.029Z,17.81
2022-09-10T22:36:41.371Z,17.29
2022-09-10T22:39:44.011Z,17.31
2022-09-10T22:42:48.015Z,17.28
2022-09-10T22:45:50.632Z,17.22
2022-09-10T22:48:53.438Z,17.66
2022-09-10T22:51:56.093Z,17.28
2022-09-10T22:54:58.717Z,17.40
2022-09-10T22:58:03.143Z,17.52
2022-09-10T23:01:06.503Z,17.34
2022-09-10T23:04:09.384Z,17.40
2022-09-10T23:07:12.477Z,17.44
2022-09-10T23:10:15.260Z,17.43
2022-09-10T23:13:19.393Z,17.38
2022-09-10T23:16:23.558Z,17.37
2022-09-10T23:19:26.655Z,17.28
2022-09-10T23:22:29.284Z,17.18
2022-09-10T23:25:31.896Z,17.35
2022-09-10T23:28:35.968Z,16.90
2022-09-10T23:31:39.461Z,16.98
2022-09-10T23:34:42.128Z,17.25
2022-09-10T23:37:45.126Z,17.02
2022-09-10T23:40:47.728Z,16.79
2022-09-10T23:43:51.743Z,17.07
2022-09-10T23:46:55.424Z,16.69
2022-09-10T23:49:58.081Z,17.02
2022-09-10T23:53:00.904Z,16.94
2022-09-10T23:56:03.884Z,16.47
2022-09-10T23:59:08.119Z,16.60
